Time;durP1;ratioP1;P1;durP2;ratioP2;P2;SDS_P1;SDS_P2;PMS_P1;PMS_P2;Temp;Humidity;BMP_temperature;BMP_pressure;BME280_temperature;BME280_humidity;BME280_pressure;Samples;Min_cycle;Max_cycle;Signal;HPM_P1;HPM_P2
2023/09/12 00:00:15;;;;;;;2.13;1.40;;;;;;;17.62;100.00;101425.50;2079407;28;20196;-69
2023/09/12 00:01:15;;;;;;;5.63;2.00;;;;;;;17.01;100.00;101329.00;2079291;28;20943;-69
2023/09/12 00:02:16;;;;;;;4.20;1.77;;;;;;;17.59;100.00;101416.00;2080391;28;20188;-69
2023/09/12 00:03:21;;;;;;;4.83;1.50;;;;;;;17.45;100.00;101399.72;2080149;28;20215;-68
2023/09/12 00:04:21;;;;;;;3.00;1.50;;;;;;;17.58;100.00;101418.00;2079423;28;20181;-69
2023/09/12 00:05:21;;;;;;;5.27;1.40;;;;;;;17.57;100.00;101418.47;2084504;28;20449;-69
2023/09/12 00:06:22;;;;;;;3.33;1.50;;;;;;;17.48;100.00;101418.44;2079319;28;20199;-68
2023/09/12 00:07:22;;;;;;;6.57;1.77;;;;;;;17.50;100.00;101421.53;2079904;28;20199;-69
2023/09/12 00:08:23;;;;;;;7.93;1.70;;;;;;;17.42;100.00;101421.03;2080144;28;20234;-68
2023/09/12 00:09:24;;;;;;;3.90;1.93;;;;;;;17.36;100.00;101414.47;2080115;28;20748;-68
2023/09/12 00:10:25;;;;;;;3.30;1.67;;;;;;;17.26;100.00;101417.69;2080645;28;20864;-69
2023/09/12 00:11:25;;;;;;;2.10;1.47;;;;;;;16.52;100.00;101330.91;2081051;28;20223;-69
2023/09/12 00:12:26;;;;;;;3.73;1.37;;;;;;;16.27;100.00;101288.25;2081521;28;20676;-69
2023/09/12 00:13:26;;;;;;;2.97;1.60;;;;;;;16.91;100.00;101389.00;2080780;28;20195;-69
2023/09/12 00:14:26;;;;;;;2.43;1.50;;;;;;;17.08;100.00;101421.16;2076837;28;20200;-68
2023/09/12 00:15:27;;;;;;;4.00;1.47;;;;;;;17.08;100.00;101428.78;2076395;28;20199;-69
2023/09/12 00:16:27;;;;;;;3.00;2.33;;;;;;;17.07;100.00;101419.56;2080313;28;20359;-68
2023/09/12 00:17:28;;;;;;;2.60;1.40;;;;;;;17.07;100.00;101427.22;2081467;28;20176;-69
2023/09/12 00:18:28;;;;;;;4.23;1.90;;;;;;;16.68;100.00;101378.28;2081418;28;20264;-69
2023/09/12 00:19:29;;;;;;;5.13;1.80;;;;;;;16.98;100.00;101421.56;2080689;28;20204;-68
2023/09/12 00:20:29;;;;;;;4.57;1.60;;;;;;;16.97;100.00;101422.78;2080478;28;20684;-69
2023/09/12 00:21:30;;;;;;;2.87;1.47;;;;;;;16.95;100.00;101425.28;2081300;28;20711;-69
2023/09/12 00:22:30;;;;;;;2.53;1.50;;;;;;;16.90;100.00;101421.03;2081353;28;20267;-69
2023/09/12 00:23:30;;;;;;;2.40;1.40;;;;;;;16.94;100.00;101423.69;2081865;28;20183;-69
2023/09/12 00:24:31;;;;;;;1.53;1.20;;;;;;;16.94;100.00;101427.28;2080625;28;20180;-69
2023/09/12 00:25:31;;;;;;;2.03;1.40;;;;;;;16.90;100.00;101429.44;2081633;28;20187;-69
2023/09/12 00:26:33;;;;;;;3.17;1.43;;;;;;;16.04;100.00;101305.50;2081009;28;20184;-69
2023/09/12 00:27:33;;;;;;;5.03;1.30;;;;;;;16.88;100.00;101424.75;2081593;28;20653;-69
2023/09/12 00:28:34;;;;;;;2.27;1.50;;;;;;;16.89;100.00;101427.88;2081260;28;20434;-69
2023/09/12 00:29:34;;;;;;;2.00;1.33;;;;;;;16.91;100.00;101430.22;2081451;28;20214;-69
2023/09/12 00:30:35;;;;;;;2.63;1.33;;;;;;;16.92;100.00;101431.78;2080425;28;20200;-68
2023/09/12 00:31:35;;;;;;;4.23;1.60;;;;;;;16.09;100.00;101302.13;2081272;28;20184;-69
2023/09/12 00:32:36;;;;;;;3.70;1.73;;;;;;;16.93;100.00;101425.72;2081399;28;20181;-69
2023/09/12 00:33:36;;;;;;;2.27;1.33;;;;;;;16.94;100.00;101432.09;2081314;28;20231;-69
2023/09/12 00:34:36;;;;;;;1.93;1.20;;;;;;;16.95;100.00;101436.47;2081969;28;20265;-69
2023/09/12 00:35:37;;;;;;;2.53;1.40;;;;;;;16.94;100.00;101434.91;2081445;28;20205;-68
2023/09/12 00:36:37;;;;;;;4.00;1.57;;;;;;;16.92;100.00;101434.59;2080589;28;20195;-69
2023/09/12 00:37:38;;;;;;;2.93;1.30;;;;;;;16.92;100.00;101431.78;2080395;28;20716;-68
2023/09/12 00:38:38;;;;;;;2.47;1.47;;;;;;;16.80;100.00;101419.41;2080211;28;20694;-69
2023/09/12 00:39:38;;;;;;;3.10;1.50;;;;;;;16.88;100.00;101431.13;2080902;28;20560;-68
2023/09/12 00:40:39;;;;;;;1.93;1.37;;;;;;;16.88;100.00;101433.91;2080170;28;20753;-69
2023/09/12 00:41:39;;;;;;;2.77;1.60;;;;;;;16.85;100.00;101432.81;2081299;28;20210;-69
2023/09/12 00:42:40;;;;;;;2.60;1.60;;;;;;;16.85;100.00;101432.06;2081966;28;20587;-69
2023/09/12 00:43:41;;;;;;;2.10;1.40;;;;;;;16.84;100.00;101434.06;2081284;28;20185;-69
2023/09/12 00:44:42;;;;;;;3.37;1.90;;;;;;;16.86;100.00;101431.56;2081172;28;21035;-69
2023/09/12 00:45:43;;;;;;;2.80;1.40;;;;;;;16.20;100.00;101338.88;2081207;28;20844;-69
2023/09/12 00:46:45;;;;;;;2.30;1.30;;;;;;;16.17;100.00;101325.78;2080627;28;20192;-69
2023/09/12 00:47:47;;;;;;;1.77;1.33;;;;;;;16.24;100.00;101347.91;2078073;28;20194;-69
2023/09/12 00:48:49;;;;;;;2.83;1.30;;;;;;;16.29;100.00;101358.53;2075568;28;20799;-69
2023/09/12 00:49:51;;;;;;;2.40;1.40;;;;;;;16.79;100.00;101439.44;2080914;28;20493;-68
2023/09/12 00:50:52;;;;;;;2.37;1.50;;;;;;;16.78;100.00;101435.88;2079961;28;20438;-69
2023/09/12 00:51:54;;;;;;;1.87;1.27;;;;;;;16.76;100.00;101432.75;2081611;28;20521;-69
2023/09/12 00:52:55;;;;;;;3.20;1.63;;;;;;;16.48;100.00;101393.81;2080435;28;20972;-69
2023/09/12 00:53:56;;;;;;;4.97;2.00;;;;;;;16.73;100.00;101440.50;2081189;28;20450;-69
2023/09/12 00:54:57;;;;;;;3.93;1.70;;;;;;;16.72;100.00;101434.13;2081218;28;20464;-69
2023/09/12 00:55:59;;;;;;;5.33;1.87;;;;;;;16.49;100.00;101410.16;2081184;28;20194;-69
2023/09/12 00:57:00;;;;;;;3.97;1.60;;;;;;;16.65;100.00;101439.97;2080104;28;20193;-69
2023/09/12 00:58:01;;;;;;;3.07;1.90;;;;;;;16.16;100.00;101371.75;2081300;28;20456;-68
2023/09/12 00:59:04;;;;;;;3.57;1.60;;;;;;;16.64;100.00;101438.44;2081027;28;20614;-69
2023/09/12 01:00:12;;;;;;;3.27;1.50;;;;;;;16.65;100.00;101440.75;2081208;28;20480;-69
2023/09/12 01:01:12;;;;;;;3.33;1.77;;;;;;;16.63;100.00;101439.63;2080459;28;20983;-69
2023/09/12 01:02:13;;;;;;;3.27;1.90;;;;;;;15.64;100.00;101296.91;2080864;28;20888;-69
2023/09/12 01:03:13;;;;;;;3.63;1.67;;;;;;;16.60;100.00;101438.53;2080769;28;20219;-69
2023/09/12 01:04:14;;;;;;;2.77;1.67;;;;;;;16.29;100.00;101400.47;2081312;28;20199;-69
2023/09/12 01:05:15;;;;;;;2.97;2.03;;;;;;;16.58;100.00;101441.00;2081247;28;20274;-69
2023/09/12 01:06:20;;;;;;;3.10;1.80;;;;;;;16.55;100.00;101443.94;2080433;28;20193;-69
2023/09/12 01:07:21;;;;;;;2.37;2.00;;;;;;;16.52;100.00;101444.06;2080930;28;20458;-69
2023/09/12 01:08:21;;;;;;;2.33;1.70;;;;;;;16.30;100.00;101413.22;2080651;28;20515;-69
2023/09/12 01:09:22;;;;;;;3.13;1.50;;;;;;;16.48;100.00;101441.38;2080938;28;20659;-69
2023/09/12 01:10:22;;;;;;;2.97;1.63;;;;;;;16.46;100.00;101441.06;2080951;28;20168;-69
2023/09/12 01:11:24;;;;;;;2.57;1.60;;;;;;;16.45;100.00;101445.09;2080457;28;20194;-69
2023/09/12 01:12:24;;;;;;;2.30;1.53;;;;;;;16.44;100.00;101444.31;2081291;28;20199;-69
2023/09/12 01:13:25;;;;;;;4.20;1.60;;;;;;;16.43;100.00;101442.75;2075277;28;20459;-69
2023/09/12 01:14:25;;;;;;;1.87;1.47;;;;;;;16.42;100.00;101443.19;2077219;28;20197;-69
2023/09/12 01:15:26;;;;;;;3.73;2.00;;;;;;;16.40;100.00;101443.63;2081414;28;20272;-68
2023/09/12 01:16:26;;;;;;;3.87;1.90;;;;;;;16.10;100.00;101402.31;2079977;28;20180;-69
2023/09/12 01:17:27;;;;;;;2.73;1.80;;;;;;;16.23;100.00;101421.84;2080907;28;20175;-69
2023/09/12 01:18:28;;;;;;;4.23;1.50;;;;;;;16.39;100.00;101444.09;2081187;28;20719;-69
2023/09/12 01:19:28;;;;;;;3.43;2.00;;;;;;;16.37;100.00;101452.13;2081558;28;20798;-69
2023/09/12 01:20:34;;;;;;;2.87;1.70;;;;;;;16.36;100.00;101454.16;2080656;28;20634;-69
2023/09/12 01:22:25;;;;;;;2.67;1.40;;;;;;;16.34;100.00;101456.59;2079450;28;20195;-69
2023/09/12 01:24:02;;;;;;;7.10;1.90;;;;;;;16.28;100.00;101452.03;2063623;28;20485;-69
2023/09/12 01:25:14;;;;;;;1.97;1.40;;;;;;;16.24;100.00;101454.19;2080251;28;20460;-69
2023/09/12 01:26:29;;;;;;;4.50;1.83;;;;;;;15.79;100.00;101387.38;2079691;28;20485;-69
2023/09/12 01:27:41;;;;;;;2.73;1.80;;;;;;;16.22;100.00;101453.84;2080980;28;20439;-68
2023/09/12 01:28:44;;;;;;;2.70;1.93;;;;;;;16.21;100.00;101461.47;2081359;28;20419;-69
2023/09/12 01:29:46;;;;;;;3.27;1.63;;;;;;;16.22;100.00;101451.03;2080900;28;20440;-69
2023/09/12 01:30:48;;;;;;;7.33;1.93;;;;;;;15.80;100.00;101393.75;2079697;28;20497;-69
2023/09/12 01:31:50;;;;;;;4.80;1.80;;;;;;;16.23;100.00;101452.59;2080962;28;20442;-69
2023/09/12 01:32:52;;;;;;;4.40;2.20;;;;;;;16.11;100.00;101440.22;2081150;28;20459;-69
2023/09/12 01:33:57;;;;;;;7.63;2.40;;;;;;;16.12;100.00;101444.59;2080869;28;20444;-69
2023/09/12 01:34:57;;;;;;;4.43;2.07;;;;;;;16.23;100.00;101453.41;2081071;28;20804;-69
2023/09/12 01:35:59;;;;;;;3.97;2.07;;;;;;;16.15;100.00;101445.69;2080418;28;20413;-69
2023/09/12 01:36:59;;;;;;;4.00;2.03;;;;;;;16.20;100.00;101456.31;2080040;28;20173;-69
2023/09/12 01:38:00;;;;;;;3.77;2.60;;;;;;;16.21;100.00;101460.66;2081379;28;20416;-69
2023/09/12 01:39:00;;;;;;;4.23;2.80;;;;;;;16.21;100.00;101455.88;2080800;28;20648;-69
2023/09/12 01:40:03;;;;;;;3.87;2.10;;;;;;;16.16;100.00;101448.06;2080907;28;20207;-69
2023/09/12 01:41:04;;;;;;;3.53;2.03;;;;;;;15.63;100.00;101365.16;2079655;28;20211;-69
2023/09/12 01:42:05;;;;;;;4.93;2.00;;;;;;;15.71;100.00;101383.28;2080945;28;20587;-69
2023/09/12 01:43:07;;;;;;;3.63;1.90;;;;;;;16.17;100.00;101458.00;2080929;28;20208;-69
2023/09/12 01:44:10;;;;;;;6.67;1.90;;;;;;;15.59;100.00;101370.09;2080985;28;20420;-69
2023/09/12 01:45:13;;;;;;;10.40;2.50;;;;;;;16.07;100.00;101459.13;2080972;28;20492;-69
2023/09/12 01:46:15;;;;;;;3.67;1.70;;;;;;;15.55;100.00;101389.00;2079495;28;20484;-69
2023/09/12 01:47:17;;;;;;;5.23;1.87;;;;;;;15.92;100.00;101451.66;2080660;28;20420;-69
2023/09/12 01:48:22;;;;;;;3.93;1.63;;;;;;;15.81;100.00;101445.63;2073072;28;20475;-69
2023/09/12 01:49:24;;;;;;;4.40;1.87;;;;;;;15.65;100.00;101443.75;2080353;28;20447;-69
2023/09/12 01:50:28;;;;;;;4.63;1.93;;;;;;;15.70;100.00;101447.97;2079778;28;20447;-69
2023/09/12 01:51:29;;;;;;;5.10;2.30;;;;;;;15.66;100.00;101441.72;2079804;28;20989;-69
2023/09/12 01:52:29;;;;;;;12.90;3.10;;;;;;;15.32;100.00;101392.06;2080744;28;20470;-69
2023/09/12 01:53:32;;;;;;;13.43;2.90;;;;;;;15.68;100.00;101448.44;2081030;28;20443;-69
2023/09/12 01:54:34;;;;;;;6.93;2.53;;;;;;;15.00;100.00;101355.97;2080734;28;20666;-69
2023/09/12 01:55:36;;;;;;;5.50;2.20;;;;;;;15.55;100.00;101444.06;2080791;28;20408;-69
2023/09/12 01:56:37;;;;;;;6.93;2.07;;;;;;;15.56;100.00;101449.22;2079604;28;20476;-69
2023/09/12 01:57:38;;;;;;;3.23;1.80;;;;;;;15.56;100.00;101445.63;2081142;28;20428;-69
2023/09/12 01:58:39;;;;;;;4.80;2.00;;;;;;;15.37;100.00;101432.66;2081155;28;20431;-69
2023/09/12 01:59:40;;;;;;;8.97;2.40;;;;;;;15.60;100.00;101452.69;2080694;28;20439;-69
2023/09/12 02:00:41;;;;;;;5.00;1.63;;;;;;;15.57;100.00;101453.56;2079634;28;20952;-69
2023/09/12 02:01:42;;;;;;;11.37;2.50;;;;;;;15.58;100.00;101451.56;2080735;28;20192;-69
2023/09/12 02:02:43;;;;;;;3.77;2.10;;;;;;;15.59;100.00;101455.91;2080855;28;20450;-69
2023/09/12 02:03:43;;;;;;;6.07;2.20;;;;;;;15.60;100.00;101454.69;2080745;28;20428;-69
2023/09/12 02:04:54;;;;;;;4.97;2.00;;;;;;;15.60;100.00;101452.69;2080433;28;20519;-69
2023/09/12 02:05:54;;;;;;;3.30;1.87;;;;;;;15.57;100.00;101439.59;2080794;28;20226;-69
2023/09/12 02:06:54;;;;;;;3.50;1.80;;;;;;;15.66;100.00;101455.69;2079840;28;20416;-69
2023/09/12 02:07:55;;;;;;;6.00;2.10;;;;;;;15.52;100.00;101434.56;2081183;28;20662;-69
2023/09/12 02:08:55;;;;;;;3.73;1.70;;;;;;;15.70;100.00;101457.16;2079498;28;20654;-69
2023/09/12 02:09:56;;;;;;;2.90;1.97;;;;;;;15.36;100.00;101408.78;2079946;28;20201;-69
2023/09/12 02:10:56;;;;;;;4.83;1.80;;;;;;;15.70;100.00;101465.53;2079096;28;20288;-69
2023/09/12 02:11:56;;;;;;;2.40;1.70;;;;;;;15.70;100.00;101459.94;2080676;28;20195;-69
2023/09/12 02:12:57;;;;;;;2.70;1.83;;;;;;;15.69;100.00;101463.19;2080646;28;20199;-69
2023/09/12 02:13:57;;;;;;;3.17;1.90;;;;;;;15.60;100.00;101454.69;2080543;28;20174;-69
2023/09/12 02:14:58;;;;;;;4.27;1.97;;;;;;;15.23;100.00;101417.09;2080433;28;20177;-69
2023/09/12 02:15:59;;;;;;;6.47;2.80;;;;;;;15.60;100.00;101460.28;2081299;28;20214;-69
2023/09/12 02:17:00;;;;;;;6.43;2.37;;;;;;;15.60;100.00;101466.66;2079482;28;20684;-69
2023/09/12 02:18:00;;;;;;;3.93;2.47;;;;;;;15.63;100.00;101462.94;2080699;28;20823;-69
2023/09/12 02:19:00;;;;;;;3.03;1.93;;;;;;;14.84;100.00;101344.13;2079959;28;20746;-69
2023/09/12 02:20:01;;;;;;;7.90;2.17;;;;;;;15.34;100.00;101420.38;2080472;28;20294;-69
2023/09/12 02:21:01;;;;;;;4.50;2.40;;;;;;;15.61;100.00;101465.41;2079553;28;20623;-69
2023/09/12 02:22:02;;;;;;;7.00;2.17;;;;;;;15.60;100.00;101468.66;2080558;28;20547;-69
2023/09/12 02:23:03;;;;;;;3.63;2.00;;;;;;;15.63;100.00;101468.53;2080386;28;20173;-69
2023/09/12 02:24:03;;;;;;;4.03;1.87;;;;;;;15.65;100.00;101474.47;2081049;28;20729;-69
2023/09/12 02:25:06;;;;;;;5.10;1.70;;;;;;;15.65;100.00;101468.09;2080510;28;20210;-69
2023/09/12 02:26:06;;;;;;;5.30;1.93;;;;;;;15.66;100.00;101466.88;2080459;28;20197;-69
2023/09/12 02:27:06;;;;;;;7.33;2.40;;;;;;;14.80;100.00;101332.31;2079575;28;20439;-69
2023/09/12 02:28:07;;;;;;;5.60;2.00;;;;;;;15.67;100.00;101469.22;2080522;28;20195;-69
2023/09/12 02:29:09;;;;;;;2.90;1.87;;;;;;;15.70;100.00;101468.34;2080273;28;20280;-69
2023/09/12 02:30:10;;;;;;;5.07;2.03;;;;;;;15.70;100.00;101459.16;2079942;28;20567;-69
2023/09/12 02:31:13;;;;;;;6.33;2.10;;;;;;;15.42;100.00;101424.50;2079651;28;20416;-69
2023/09/12 02:32:14;;;;;;;6.30;2.53;;;;;;;15.69;100.00;101465.97;2079626;28;20185;-69
2023/09/12 02:33:14;;;;;;;2.83;1.80;;;;;;;15.72;100.00;101459.50;2080059;28;20429;-69
2023/09/12 02:34:14;;;;;;;3.10;1.90;;;;;;;15.73;100.00;101467.44;2080632;28;20181;-69
2023/09/12 02:35:15;;;;;;;3.10;1.70;;;;;;;15.73;100.00;101467.44;2080397;28;20190;-69
2023/09/12 02:36:16;;;;;;;2.90;1.73;;;;;;;15.74;100.00;101465.44;2079643;28;20213;-69
2023/09/12 02:37:16;;;;;;;3.27;1.90;;;;;;;15.68;100.00;101459.59;2080150;28;20278;-69
2023/09/12 02:38:18;;;;;;;4.10;1.97;;;;;;;15.76;100.00;101468.53;2080175;28;20190;-69
2023/09/12 02:39:18;;;;;;;2.93;2.20;;;;;;;15.45;100.00;101429.22;2080778;28;20196;-69
2023/09/12 02:40:19;;;;;;;3.67;2.10;;;;;;;15.78;100.00;101468.91;2079729;28;20420;-69
2023/09/12 02:41:19;;;;;;;5.47;2.47;;;;;;;15.70;100.00;101450.78;2079515;28;20196;-69
2023/09/12 02:42:19;;;;;;;4.23;1.90;;;;;;;15.79;100.00;101464.88;2079651;28;20192;-69
2023/09/12 02:43:20;;;;;;;6.13;2.57;;;;;;;15.82;100.00;101467.53;2080647;28;20688;-69
2023/09/12 02:44:20;;;;;;;3.50;1.90;;;;;;;15.84;100.00;101472.69;2080412;28;20181;-69
2023/09/12 02:45:21;;;;;;;3.13;2.20;;;;;;;15.63;100.00;101437.03;2080298;28;20209;-69
2023/09/12 02:46:21;;;;;;;4.10;2.10;;;;;;;15.77;100.00;101459.72;2079631;28;20236;-69
2023/09/12 02:47:21;;;;;;;4.27;1.87;;;;;;;15.86;100.00;101471.00;2079828;28;20191;-69
2023/09/12 02:48:22;;;;;;;5.07;1.93;;;;;;;15.89;100.00;101474.94;2080019;28;20173;-69
2023/09/12 02:49:22;;;;;;;5.77;2.07;;;;;;;15.08;100.00;101348.16;2080825;28;20177;-69
2023/09/12 02:50:23;;;;;;;5.37;1.90;;;;;;;15.91;100.00;101466.84;2079642;28;20196;-69
2023/09/12 02:51:25;;;;;;;3.43;1.67;;;;;;;15.67;100.00;101444.06;2079400;28;20283;-69
2023/09/12 02:52:25;;;;;;;2.57;1.70;;;;;;;15.96;100.00;101469.09;2080198;28;20193;-69
2023/09/12 02:53:26;;;;;;;3.80;1.97;;;;;;;15.96;100.00;101471.88;2080363;28;20539;-69
2023/09/12 02:54:26;;;;;;;5.73;2.00;;;;;;;15.96;100.00;101464.31;2080382;28;20205;-69
2023/09/12 02:55:27;;;;;;;3.53;1.80;;;;;;;15.97;100.00;101465.84;2079722;28;20659;-69
2023/09/12 02:56:27;;;;;;;4.23;1.97;;;;;;;15.98;100.00;101466.66;2078574;28;20740;-69
2023/09/12 02:57:27;;;;;;;7.83;2.27;;;;;;;15.94;100.00;101469.53;2080843;28;20720;-69
2023/09/12 02:58:47;;;;;;;5.00;1.87;;;;;;;15.93;100.00;101467.97;2080396;28;20275;-69
2023/09/12 02:59:47;;;;;;;3.93;2.50;;;;;;;15.94;100.00;101465.97;2071908;28;20188;-69
2023/09/12 03:00:50;;;;;;;3.77;2.00;;;;;;;15.92;100.00;101463.63;2070500;28;20477;-69
2023/09/12 03:01:50;;;;;;;6.57;2.10;;;;;;;15.85;100.00;101463.88;2077535;28;20201;-69
2023/09/12 03:02:51;;;;;;;2.73;1.83;;;;;;;15.65;100.00;101426.97;2079812;28;20964;-69
2023/09/12 03:03:51;;;;;;;4.57;2.40;;;;;;;15.83;100.00;101466.31;2080242;28;20573;-69
2023/09/12 03:04:52;;;;;;;6.83;2.17;;;;;;;15.88;100.00;101462.94;2080347;28;20698;-69
2023/09/12 03:05:59;;;;;;;4.63;2.63;;;;;;;15.48;100.00;101403.16;2080386;28;20183;-69
2023/09/12 03:07:00;;;;;;;2.73;1.90;;;;;;;15.92;100.00;101477.59;2078811;28;20219;-69
2023/09/12 03:08:00;;;;;;;3.23;1.90;;;;;;;15.92;100.00;101458.03;2079773;28;20476;-69
2023/09/12 03:09:00;;;;;;;5.57;2.30;;;;;;;15.93;100.00;101467.97;2080693;28;20184;-69
2023/09/12 03:10:01;;;;;;;2.63;1.70;;;;;;;15.94;100.00;101463.94;2080297;28;20257;-69
2023/09/12 03:11:02;;;;;;;5.30;1.97;;;;;;;15.94;100.00;101463.94;2078900;28;20195;-69
2023/09/12 03:12:04;;;;;;;2.97;2.10;;;;;;;15.94;100.00;101463.94;2079584;28;20197;-69
2023/09/12 03:13:05;;;;;;;5.90;1.90;;;;;;;14.70;100.00;101264.41;2079646;28;20802;-69
2023/09/12 03:14:05;;;;;;;3.67;1.80;;;;;;;15.94;100.00;101463.94;2080204;28;20522;-69
2023/09/12 03:15:06;;;;;;;2.70;1.83;;;;;;;15.87;100.00;101450.22;2079963;28;20216;-69
2023/09/12 03:16:11;;;;;;;5.77;1.97;;;;;;;15.87;100.00;101461.38;2080410;28;20189;-69
2023/09/12 03:17:11;;;;;;;5.13;1.80;;;;;;;15.94;100.00;101463.19;2079372;28;20776;-69
2023/09/12 03:18:11;;;;;;;5.53;2.10;;;;;;;15.96;100.00;101466.31;2080762;28;20452;-69
2023/09/12 03:19:12;;;;;;;3.87;1.87;;;;;;;15.94;100.00;101463.19;2080203;28;20216;-69
2023/09/12 03:20:12;;;;;;;4.63;2.10;;;;;;;15.94;100.00;101471.56;2079989;28;20189;-69
2023/09/12 03:21:12;;;;;;;6.37;2.00;;;;;;;15.78;100.00;101440.94;2079470;28;20249;-69
2023/09/12 03:22:13;;;;;;;5.47;2.00;;;;;;;15.94;100.00;101468.78;2079434;28;20225;-69
2023/09/12 03:23:13;;;;;;;2.87;1.90;;;;;;;15.95;100.00;101461.94;2080329;28;20178;-69
2023/09/12 03:24:14;;;;;;;5.93;1.80;;;;;;;15.29;100.00;101367.06;2079297;28;20686;-68
2023/09/12 03:25:14;;;;;;;3.30;1.93;;;;;;;15.80;100.00;101450.44;2079768;28;20230;-69
2023/09/12 03:26:14;;;;;;;5.50;2.37;;;;;;;15.86;100.00;101461.84;2079838;28;20181;-68
2023/09/12 03:27:15;;;;;;;2.70;1.93;;;;;;;15.96;100.00;101471.88;2080217;28;20187;-69
2023/09/12 03:28:15;;;;;;;5.20;1.90;;;;;;;15.64;100.00;101424.63;2080441;28;20306;-69
2023/09/12 03:29:16;;;;;;;8.43;1.90;;;;;;;15.75;100.00;101441.84;2079982;28;20195;-69
2023/09/12 03:30:16;;;;;;;6.00;2.23;;;;;;;15.91;100.00;101480.84;2079480;28;20576;-69
2023/09/12 03:31:17;;;;;;;12.03;3.03;;;;;;;15.89;100.00;101470.09;2079400;28;20239;-68
2023/09/12 03:32:17;;;;;;;5.60;2.17;;;;;;;15.90;100.00;101474.47;2079318;28;20193;-69
2023/09/12 03:33:17;;;;;;;4.50;2.03;;;;;;;15.90;100.00;101473.69;2079724;28;20644;-69
2023/09/12 03:34:18;;;;;;;5.67;2.13;;;;;;;15.87;100.00;101471.78;2072555;28;20727;-69
2023/09/12 03:35:18;;;;;;;2.87;1.80;;;;;;;15.80;100.00;101474.81;2079097;28;20189;-69
2023/09/12 03:36:18;;;;;;;10.40;2.33;;;;;;;15.74;100.00;101466.22;2078877;28;20197;-69
2023/09/12 03:37:19;;;;;;;3.73;2.13;;;;;;;15.71;100.00;101469.91;2079837;28;20185;-69
2023/09/12 03:38:19;;;;;;;4.20;1.80;;;;;;;15.69;100.00;101460.41;2080081;28;20253;-69
2023/09/12 03:39:20;;;;;;;5.97;1.97;;;;;;;15.70;100.00;101479.50;2080497;28;20269;-69
2023/09/12 03:40:20;;;;;;;5.03;1.80;;;;;;;15.69;100.00;101477.94;2079449;28;20190;-69
2023/09/12 03:41:25;;;;;;;4.20;2.00;;;;;;;15.65;100.00;101474.47;2079998;28;20708;-69
2023/09/12 03:42:25;;;;;;;7.47;2.50;;;;;;;15.53;100.00;101452.88;2072426;28;20662;-69
2023/09/12 03:43:25;;;;;;;7.80;2.40;;;;;;;15.63;100.00;101473.38;2079610;28;20550;-69
2023/09/12 03:44:26;;;;;;;10.63;2.83;;;;;;;15.62;100.00;101477.41;2079799;28;20260;-69
2023/09/12 03:45:26;;;;;;;15.70;2.43;;;;;;;15.58;100.00;101471.13;2081210;28;20771;-69
2023/09/12 03:46:27;;;;;;;13.57;3.83;;;;;;;15.55;100.00;101472.00;2081048;28;20518;-69
2023/09/12 03:47:27;;;;;;;6.83;2.00;;;;;;;15.52;100.00;101482.06;2081626;28;20197;-68
2023/09/12 03:48:30;;;;;;;3.20;2.17;;;;;;;15.41;100.00;101472.44;2081844;28;20260;-68
2023/09/12 03:49:30;;;;;;;6.10;2.00;;;;;;;15.32;100.00;101470.25;2081526;28;20650;-68
2023/09/12 03:50:31;;;;;;;9.27;3.03;;;;;;;15.39;100.00;101480.47;2081268;28;20788;-69
2023/09/12 03:51:31;;;;;;;4.70;2.70;;;;;;;15.40;100.00;101477.25;2081131;28;20225;-68
2023/09/12 03:52:32;;;;;;;5.33;2.00;;;;;;;14.53;100.00;101345.81;2081776;28;20196;-69
2023/09/12 03:53:32;;;;;;;4.77;1.97;;;;;;;15.35;100.00;101477.81;2081738;28;20323;-68
2023/09/12 03:54:32;;;;;;;3.00;2.00;;;;;;;15.36;100.00;101476.56;2081500;28;20258;-68
2023/09/12 03:55:33;;;;;;;5.73;2.10;;;;;;;15.35;100.00;101482.59;2081246;28;20286;-68
2023/09/12 03:56:33;;;;;;;5.47;2.07;;;;;;;15.35;100.00;101488.97;2079881;28;20181;-69
2023/09/12 03:57:34;;;;;;;3.57;1.83;;;;;;;14.82;100.00;101410.75;2081325;28;20169;-68
2023/09/12 03:58:35;;;;;;;3.93;1.90;;;;;;;15.30;100.00;101495.06;2082217;28;20169;-69
2023/09/12 03:59:35;;;;;;;3.57;1.90;;;;;;;15.32;100.00;101492.59;2085250;28;20196;-68
2023/09/12 04:00:35;;;;;;;2.40;1.60;;;;;;;15.33;100.00;101493.44;2082535;28;20196;-68
2023/09/12 04:01:36;;;;;;;3.80;1.90;;;;;;;15.32;100.00;101487.03;2080215;28;20189;-68
2023/09/12 04:02:36;;;;;;;2.63;1.87;;;;;;;14.78;100.00;101404.50;2080795;28;20282;-69
2023/09/12 04:03:37;;;;;;;3.10;1.57;;;;;;;15.32;100.00;101487.03;2080977;28;20194;-69
2023/09/12 04:04:37;;;;;;;0.90;0.73;;;;;;;15.69;100.00;101455.59;2080760;28;20552;-71
2023/09/12 04:05:38;;;;;;;3.00;1.40;;;;;;;17.34;100.00;101478.59;2081326;28;20188;-59
2023/09/12 04:06:38;;;;;;;2.63;1.50;;;;;;;18.38;100.00;101494.44;2086494;28;20180;-58
2023/09/12 04:07:39;;;;;;;3.03;1.60;;;;;;;18.91;100.00;101495.75;2084009;28;20190;-59
2023/09/12 04:08:39;;;;;;;2.80;1.57;;;;;;;19.31;100.00;101487.16;2083535;28;20198;-58
2023/09/12 04:09:39;;;;;;;3.50;1.40;;;;;;;19.49;100.00;101482.25;2083528;28;20189;-59
2023/09/12 04:10:40;;;;;;;2.73;1.43;;;;;;;19.71;100.00;101482.81;2079890;28;20192;-58
2023/09/12 04:11:41;;;;;;;3.00;1.87;;;;;;;19.94;100.00;101476.47;2081135;28;20250;-59
2023/09/12 04:12:41;;;;;;;4.50;1.67;;;;;;;19.94;100.00;101472.84;2081121;28;20193;-59
2023/09/12 04:13:42;;;;;;;3.17;1.60;;;;;;;20.15;100.00;101464.19;2080618;28;20237;-60
2023/09/12 04:14:42;;;;;;;3.77;1.67;;;;;;;20.30;100.00;101469.88;2085628;28;20271;-60
2023/09/12 04:15:42;;;;;;;2.20;1.30;;;;;;;20.32;100.00;101475.81;2085254;28;20192;-58
2023/09/12 04:16:43;;;;;;;2.17;1.40;;;;;;;20.37;100.00;101475.16;2083293;28;20600;-57
2023/09/12 04:17:43;;;;;;;3.53;1.70;;;;;;;20.49;100.00;101469.28;2079875;28;20195;-58
2023/09/12 04:18:44;;;;;;;3.97;2.00;;;;;;;20.50;100.00;101476.47;2080723;28;20240;-58
2023/09/12 04:19:44;;;;;;;6.40;1.90;;;;;;;20.51;100.00;101468.78;2084772;28;20811;-58
2023/09/12 04:20:45;;;;;;;3.87;1.73;;;;;;;20.54;100.00;101476.28;2079852;28;20192;-58
2023/09/12 04:21:45;;;;;;;4.43;2.10;;;;;;;20.44;100.00;101475.56;2081771;28;20177;-58
2023/09/12 04:22:46;;;;;;;3.00;1.63;;;;;;;20.30;100.00;101473.47;2089583;28;20276;-58
2023/09/12 04:23:46;;;;;;;4.20;1.60;;;;;;;20.13;100.00;101475.16;2085066;28;20263;-60
2023/09/12 04:24:47;;;;;;;3.10;1.70;;;;;;;20.29;100.00;101477.56;2081429;28;20192;-58
2023/09/12 04:25:47;;;;;;;2.80;1.50;;;;;;;20.64;100.00;101484.19;2083510;28;20197;-59
2023/09/12 04:26:48;;;;;;;4.07;1.50;;;;;;;20.63;100.00;101434.75;2078721;28;20298;-59
2023/09/12 04:27:48;;;;;;;2.87;1.70;;;;;;;20.97;100.00;101470.00;2078341;28;20658;-60
2023/09/12 04:28:48;;;;;;;2.83;1.63;;;;;;;20.10;100.00;101309.28;2079724;28;20651;-59
2023/09/12 04:29:49;;;;;;;3.97;1.83;;;;;;;21.34;100.00;101471.97;2087819;28;20564;-60
2023/09/12 04:30:49;;;;;;;4.50;1.70;;;;;;;21.53;100.00;101473.34;2078992;28;20188;-59
2023/09/12 04:31:52;;;;;;;4.17;1.50;;;;;;;21.59;100.00;101460.09;2085964;28;20199;-59
2023/09/12 04:32:53;;;;;;;6.97;1.97;;;;;;;21.69;100.00;101472.84;2081349;28;20235;-59
2023/09/12 04:33:54;;;;;;;2.50;1.40;;;;;;;21.50;100.00;101465.84;2080656;28;20496;-59
2023/09/12 04:34:54;;;;;;;2.30;1.43;;;;;;;21.43;100.00;101474.69;2080316;28;20181;-59
2023/09/12 04:35:58;;;;;;;3.53;1.77;;;;;;;21.23;100.00;101471.78;2083480;28;20435;-60
2023/09/12 04:36:58;;;;;;;2.37;1.43;;;;;;;21.16;100.00;101454.47;2078722;28;20615;-60
2023/09/12 04:37:59;;;;;;;2.70;1.43;;;;;;;20.98;100.00;101430.06;2079908;28;20419;-59
2023/09/12 04:39:00;;;;;;;2.77;1.77;;;;;;;21.18;100.00;101472.47;2081107;28;20280;-60
2023/09/12 04:40:00;;;;;;;2.30;1.57;;;;;;;21.14;100.00;101476.75;2080316;28;20179;-59
2023/09/12 04:41:04;;;;;;;3.77;1.40;;;;;;;21.18;100.00;101485.78;2079308;28;20441;-60
2023/09/12 04:42:05;;;;;;;4.47;1.50;;;;;;;21.44;100.00;101473.44;2083951;28;20271;-59